createdAt,value
2022-08-16T00:02:12.985Z,19.64
2022-08-16T00:04:39.984Z,19.60
2022-08-16T00:07:06.417Z,19.60
2022-08-16T00:09:33.112Z,19.60
2022-08-16T00:12:03.032Z,19.56
2022-08-16T00:14:33.342Z,19.56
2022-08-16T00:17:16.073Z,19.55
2022-08-16T00:19:45.752Z,19.54
2022-08-16T00:22:13.738Z,19.57
2022-08-16T00:24:44.705Z,19.59
2022-08-16T00:27:13.154Z,19.62
2022-08-16T00:29:39.646Z,19.65
2022-08-16T00:32:08.073Z,19.69
2022-08-16T00:34:52.382Z,19.72
2022-08-16T00:37:24.631Z,19.74
2022-08-16T00:39:57.167Z,19.74
2022-08-16T00:42:30.605Z,19.76
2022-08-16T00:45:09.458Z,19.76
2022-08-16T00:47:42.706Z,19.74
2022-08-16T00:50:20.169Z,19.73
2022-08-16T00:52:50.871Z,19.74
2022-08-16T00:55:23.773Z,19.74
2022-08-16T00:57:59.205Z,19.75
2022-08-16T01:00:28.812Z,19.75
2022-08-16T01:05:42.946Z,19.76
2022-08-16T01:08:36.083Z,19.79
2022-08-16T01:10:59.996Z,19.81
2022-08-16T01:13:31.601Z,19.83
2022-08-16T01:16:03.404Z,19.85
2022-08-16T01:18:42.493Z,19.86
2022-08-16T01:21:41.213Z,19.85
2022-08-16T01:24:44.529Z,19.83
2022-08-16T01:27:10.314Z,19.84
2022-08-16T01:29:57.341Z,19.84
2022-08-16T01:32:33.602Z,19.84
2022-08-16T01:35:01.076Z,19.86
2022-08-16T01:37:27.630Z,19.89
2022-08-16T01:40:07.182Z,19.90
2022-08-16T01:42:34.351Z,19.90
2022-08-16T01:45:01.044Z,19.90
2022-08-16T01:47:29.435Z,19.89
2022-08-16T01:50:42.000Z,19.86
2022-08-16T01:52:46.780Z,19.80
2022-08-16T01:55:14.573Z,19.78
2022-08-16T01:57:53.667Z,19.76
2022-08-16T02:00:29.391Z,19.74
2022-08-16T02:02:56.887Z,19.70
2022-08-16T02:05:23.773Z,19.66
2022-08-16T02:07:52.144Z,19.68
2022-08-16T02:10:20.049Z,19.69
2022-08-16T02:12:51.445Z,19.68
2022-08-16T02:15:26.016Z,19.67
2022-08-16T02:17:55.252Z,19.68
2022-08-16T02:20:26.128Z,19.67
2022-08-16T02:22:55.520Z,19.67
2022-08-16T02:25:23.021Z,19.67
2022-08-16T02:27:51.053Z,19.67
2022-08-16T02:30:35.699Z,19.68
2022-08-16T02:33:04.865Z,19.67
2022-08-16T02:35:32.490Z,19.67
2022-08-16T02:38:08.422Z,19.67
2022-08-16T02:40:36.105Z,19.66
2022-08-16T02:43:04.178Z,19.66
2022-08-16T02:45:30.614Z,19.64
2022-08-16T02:48:01.273Z,19.62
2022-08-16T02:50:54.918Z,19.57
2022-08-16T02:53:32.064Z,19.55
2022-08-16T02:55:59.192Z,19.53
2022-08-16T02:58:28.036Z,19.49
2022-08-16T03:00:57.243Z,19.49
2022-08-16T03:03:26.115Z,19.49
2022-08-16T03:05:53.498Z,19.50
2022-08-16T03:08:51.098Z,19.53
2022-08-16T03:11:17.924Z,19.51
2022-08-16T03:13:56.477Z,19.51
2022-08-16T03:16:38.359Z,19.49
2022-08-16T03:19:09.015Z,19.45
2022-08-16T03:21:37.792Z,19.43
2022-08-16T03:24:06.220Z,19.42
2022-08-16T03:26:52.901Z,19.37
2022-08-16T03:29:19.491Z,19.35
2022-08-16T03:31:45.941Z,19.33
2022-08-16T03:34:19.198Z,19.32
2022-08-16T03:36:47.307Z,19.32
2022-08-16T03:39:15.073Z,19.31
2022-08-16T03:41:50.847Z,19.29
2022-08-16T03:44:44.592Z,19.27
2022-08-16T03:47:05.073Z,19.25
2022-08-16T03:49:37.371Z,19.23
2022-08-16T03:52:04.420Z,19.22
2022-08-16T03:54:31.105Z,19.24
2022-08-16T03:56:58.761Z,19.24
2022-08-16T03:59:25.865Z,19.24
2022-08-16T04:01:56.414Z,19.21
2022-08-16T04:04:25.099Z,19.18
2022-08-16T04:07:00.491Z,19.15
2022-08-16T04:09:35.455Z,19.12
2022-08-16T04:12:11.210Z,19.09
2022-08-16T04:14:51.552Z,19.06
2022-08-16T04:17:18.132Z,19.05
2022-08-16T04:19:46.585Z,19.04
2022-08-16T04:22:17.079Z,19.03
2022-08-16T04:24:54.321Z,19.00
2022-08-16T04:27:22.235Z,18.96
2022-08-16T04:29:52.297Z,18.96
2022-08-16T04:32:19.843Z,18.92
2022-08-16T04:34:46.805Z,18.88
2022-08-16T04:37:14.217Z,18.86
2022-08-16T04:39:46.839Z,18.85
2022-08-16T04:42:16.065Z,18.84
2022-08-16T04:44:53.613Z,18.85
2022-08-16T04:47:31.404Z,18.85
2022-08-16T04:49:58.636Z,18.89
2022-08-16T04:52:34.468Z,18.97
2022-08-16T04:55:04.810Z,19.04
2022-08-16T04:57:31.303Z,19.14
2022-08-16T04:59:57.785Z,19.16
2022-08-16T05:02:41.858Z,19.16
2022-08-16T05:05:17.785Z,19.10
2022-08-16T05:07:59.579Z,19.05
2022-08-16T05:10:28.191Z,19.02
2022-08-16T05:12:57.544Z,18.98
2022-08-16T05:15:24.548Z,18.96
2022-08-16T05:17:55.522Z,18.95
2022-08-16T05:20:39.100Z,18.92
2022-08-16T05:23:13.799Z,18.93
2022-08-16T05:25:48.502Z,18.95
2022-08-16T05:28:16.440Z,19.03
2022-08-16T05:30:43.110Z,19.07
2022-08-16T05:33:16.263Z,19.07
2022-08-16T05:35:43.685Z,19.08
2022-08-16T05:38:32.557Z,19.09
2022-08-16T05:41:00.554Z,19.10
2022-08-16T05:43:32.201Z,19.11
2022-08-16T05:46:29.781Z,19.12
2022-08-16T05:49:08.675Z,19.14
2022-08-16T05:51:39.986Z,19.16
2022-08-16T05:54:09.603Z,19.19
2022-08-16T05:56:39.271Z,19.23
2022-08-16T05:59:07.172Z,19.28
2022-08-16T06:01:37.830Z,19.33
2022-08-16T06:04:13.459Z,19.39
2022-08-16T06:06:56.437Z,19.45
2022-08-16T06:09:25.155Z,19.55
2022-08-16T06:11:52.112Z,19.65
2022-08-16T06:14:18.965Z,19.75
2022-08-16T06:16:50.867Z,19.85
2022-08-16T06:19:17.800Z,19.97
2022-08-16T06:21:44.436Z,20.06
2022-08-16T06:24:54.745Z,20.17
2022-08-16T06:26:58.400Z,20.30
2022-08-16T06:29:25.151Z,20.42
2022-08-16T06:31:51.788Z,20.52
2022-08-16T06:34:56.149Z,20.64
2022-08-16T06:37:05.849Z,20.70
2022-08-16T06:39:34.368Z,20.78
2022-08-16T06:42:01.080Z,20.79
2022-08-16T06:44:27.821Z,20.86
2022-08-16T06:46:54.399Z,20.89
2022-08-16T06:49:20.857Z,21.02
2022-08-16T06:51:48.825Z,21.01
2022-08-16T06:54:16.356Z,21.11
2022-08-16T06:56:43.399Z,21.14
2022-08-16T06:59:10.399Z,21.17
2022-08-16T07:01:46.320Z,21.28
2022-08-16T07:04:33.235Z,21.33
2022-08-16T07:07:05.966Z,21.32
2022-08-16T07:09:32.718Z,21.44
2022-08-16T07:12:03.435Z,21.49
2022-08-16T07:14:31.131Z,21.62
2022-08-16T07:16:59.499Z,21.70
2022-08-16T07:20:01.541Z,21.74
2022-08-16T07:22:36.780Z,21.83
2022-08-16T07:25:04.903Z,21.89
2022-08-16T07:27:33.586Z,21.97
2022-08-16T07:30:00.816Z,22.03
2022-08-16T07:32:29.279Z,22.12
2022-08-16T07:34:58.025Z,22.17
2022-08-16T07:37:24.476Z,22.25
2022-08-16T07:39:51.534Z,22.26
2022-08-16T07:42:28.709Z,22.32
2022-08-16T07:45:02.636Z,22.38
2022-08-16T07:47:31.686Z,22.49
2022-08-16T07:49:59.344Z,22.47
2022-08-16T07:52:29.937Z,22.48
2022-08-16T07:54:57.497Z,22.60
2022-08-16T07:57:24.664Z,22.69
2022-08-16T07:59:51.962Z,22.67
2022-08-16T08:02:20.110Z,22.78
2022-08-16T08:04:48.151Z,22.91
2022-08-16T08:07:16.205Z,22.93
2022-08-16T08:09:43.382Z,22.92
2022-08-16T08:12:31.479Z,23.10
2022-08-16T08:14:56.819Z,23.22
2022-08-16T08:17:23.300Z,23.33
2022-08-16T08:19:52.976Z,23.41
2022-08-16T08:22:22.306Z,23.53
2022-08-16T08:24:49.244Z,23.57
2022-08-16T08:27:23.008Z,23.72
2022-08-16T08:30:48.904Z,23.88
2022-08-16T08:32:57.945Z,23.89
2022-08-16T08:35:27.111Z,24.04
2022-08-16T08:37:56.433Z,24.10
2022-08-16T08:40:26.776Z,24.12
2022-08-16T08:43:00.036Z,24.15
2022-08-16T08:45:47.869Z,24.18
2022-08-16T08:48:34.597Z,24.27
2022-08-16T08:51:08.964Z,24.41
2022-08-16T08:53:36.973Z,24.34
2022-08-16T08:56:23.511Z,24.27
2022-08-16T08:58:54.715Z,24.42
2022-08-16T09:01:36.824Z,24.50
2022-08-16T09:04:10.508Z,24.62
2022-08-16T09:06:43.260Z,24.78
2022-08-16T09:09:17.044Z,24.91
2022-08-16T09:11:47.277Z,24.94
2022-08-16T09:14:24.101Z,25.07
2022-08-16T09:17:00.899Z,25.24
2022-08-16T09:19:34.197Z,25.34
2022-08-16T09:22:02.016Z,25.53
2022-08-16T09:24:47.168Z,25.70
2022-08-16T09:27:15.928Z,25.87
2022-08-16T09:29:44.787Z,26.01
2022-08-16T09:32:12.406Z,26.13
2022-08-16T09:34:54.884Z,26.08
2022-08-16T09:37:29.621Z,26.20
2022-08-16T09:39:58.102Z,26.39
2022-08-16T09:42:28.169Z,26.59
2022-08-16T09:45:11.741Z,26.74
2022-08-16T09:47:57.064Z,26.92
2022-08-16T09:50:33.188Z,27.09
2022-08-16T09:53:08.461Z,27.29
2022-08-16T09:55:44.925Z,27.44
2022-08-16T09:58:37.558Z,27.55
2022-08-16T10:01:02.199Z,27.75
2022-08-16T10:03:30.605Z,27.88
2022-08-16T10:05:57.617Z,28.05
2022-08-16T10:08:25.737Z,28.22
2022-08-16T10:11:11.457Z,28.04
2022-08-16T10:13:39.516Z,27.80
2022-08-16T10:19:02.146Z,28.30
2022-08-16T10:21:23.556Z,28.18
2022-08-16T10:23:53.449Z,28.31
2022-08-16T10:27:00.735Z,28.53
2022-08-16T10:29:11.595Z,28.80
2022-08-16T10:31:44.544Z,28.85
2022-08-16T10:34:32.037Z,29.07
2022-08-16T10:36:59.606Z,28.97
2022-08-16T10:39:26.082Z,29.09
2022-08-16T10:41:52.559Z,29.41
2022-08-16T10:44:19.043Z,29.77
2022-08-16T10:46:45.475Z,29.96
2022-08-16T10:49:16.882Z,30.06
2022-08-16T10:52:01.421Z,30.00
2022-08-16T10:54:30.600Z,30.20
2022-08-16T10:57:01.362Z,30.32
2022-08-16T10:59:38.232Z,30.24
2022-08-16T11:02:59.577Z,30.06
2022-08-16T11:05:08.235Z,30.15
2022-08-16T11:07:51.414Z,30.10
2022-08-16T11:19:05.288Z,29.31
2022-08-16T11:22:23.074Z,29.28
2022-08-16T11:24:40.103Z,29.37
2022-08-16T11:27:24.108Z,29.55
2022-08-16T11:29:55.740Z,29.67
2022-08-16T11:32:31.740Z,29.70
2022-08-16T11:35:10.544Z,29.92
2022-08-16T11:40:32.517Z,30.21
2022-08-16T11:43:01.374Z,30.37
2022-08-16T11:45:27.962Z,30.56
2022-08-16T11:48:00.384Z,30.74
2022-08-16T11:50:27.263Z,30.72
2022-08-16T11:52:53.768Z,30.60
2022-08-16T11:55:20.337Z,31.02
2022-08-16T11:57:56.358Z,31.41
2022-08-16T12:00:34.084Z,31.62
2022-08-16T12:03:11.148Z,31.79
2022-08-16T12:05:39.615Z,31.93
2022-08-16T12:08:07.127Z,31.81
2022-08-16T12:10:36.214Z,32.10
2022-08-16T12:13:03.027Z,32.36
2022-08-16T12:15:31.045Z,32.34
2022-08-16T12:17:58.055Z,32.31
2022-08-16T12:20:29.789Z,32.55
2022-08-16T12:22:57.102Z,32.46
2022-08-16T12:25:27.380Z,32.93
2022-08-16T12:27:55.538Z,32.99
2022-08-16T12:30:31.176Z,33.06
2022-08-16T12:33:03.332Z,32.87
2022-08-16T12:35:31.495Z,33.36
2022-08-16T12:37:59.938Z,33.60
2022-08-16T12:40:31.561Z,33.58
2022-08-16T12:43:00.852Z,33.67
2022-08-16T12:45:31.090Z,33.97
2022-08-16T12:48:32.633Z,33.90
2022-08-16T12:51:03.726Z,34.31
2022-08-16T12:53:31.778Z,34.48
2022-08-16T12:55:59.358Z,34.88
2022-08-16T12:58:49.227Z,34.70
2022-08-16T13:01:14.783Z,34.71
2022-08-16T13:03:42.089Z,34.81
2022-08-16T13:06:09.506Z,34.93
2022-08-16T13:08:39.420Z,35.09
2022-08-16T13:11:07.720Z,34.89
2022-08-16T13:13:35.579Z,34.98
2022-08-16T13:16:15.464Z,34.99
2022-08-16T13:18:52.753Z,35.20
2022-08-16T13:21:23.489Z,35.10
2022-08-16T13:23:51.389Z,35.20
2022-08-16T13:26:21.969Z,34.85
2022-08-16T13:28:48.421Z,35.07
2022-08-16T13:31:16.914Z,35.26
2022-08-16T13:33:43.632Z,35.15
2022-08-16T13:36:21.273Z,35.22
2022-08-16T13:38:59.978Z,35.41
2022-08-16T13:41:30.178Z,35.33
2022-08-16T13:43:59.548Z,35.39
2022-08-16T13:46:27.215Z,35.55
2022-08-16T13:48:55.334Z,35.64
2022-08-16T13:51:25.378Z,35.13
2022-08-16T13:54:02.950Z,35.22
2022-08-16T13:56:38.123Z,35.13
2022-08-16T13:59:14.363Z,35.08
2022-08-16T14:01:54.672Z,35.29
2022-08-16T14:04:26.176Z,35.63
2022-08-16T14:06:53.184Z,35.59
2022-08-16T14:09:20.251Z,35.65
2022-08-16T14:11:46.827Z,35.71
2022-08-16T14:14:16.681Z,35.48
2022-08-16T14:16:44.619Z,35.34
2022-08-16T14:19:11.991Z,35.21
2022-08-16T14:21:40.925Z,35.16
2022-08-16T14:24:22.424Z,35.16
2022-08-16T14:26:54.793Z,34.97
2022-08-16T14:29:23.431Z,34.85
2022-08-16T14:31:53.868Z,34.68
2022-08-16T14:34:21.336Z,34.44
2022-08-16T14:36:52.957Z,34.32
2022-08-16T14:39:21.904Z,34.25
2022-08-16T14:41:48.365Z,34.29
2022-08-16T14:44:16.008Z,34.35
2022-08-16T14:46:42.422Z,34.20
2022-08-16T14:49:09.752Z,34.09
2022-08-16T14:51:36.569Z,34.08
2022-08-16T14:54:05.473Z,34.10
2022-08-16T14:56:38.482Z,34.04
2022-08-16T14:59:09.578Z,33.99
2022-08-16T15:03:44.734Z,33.86
2022-08-16T15:06:13.186Z,33.82
2022-08-16T15:08:41.170Z,33.81
2022-08-16T15:11:07.971Z,33.97
2022-08-16T15:13:35.299Z,34.08
2022-08-16T15:16:03.728Z,34.27
2022-08-16T15:18:31.683Z,34.28
2022-08-16T15:21:02.517Z,34.17
2022-08-16T15:23:31.481Z,34.11
2022-08-16T15:26:02.762Z,33.98
2022-08-16T15:28:32.347Z,33.89
2022-08-16T15:31:04.403Z,33.85
2022-08-16T15:33:39.332Z,33.83
2022-08-16T15:36:12.152Z,33.83
2022-08-16T15:39:02.179Z,33.87
2022-08-16T15:41:42.875Z,33.70
2022-08-16T15:44:15.581Z,33.72
2022-08-16T15:46:56.104Z,33.75
2022-08-16T15:49:25.235Z,33.75
2022-08-16T15:52:01.728Z,33.83
2022-08-16T15:54:32.766Z,33.92
2022-08-16T15:57:09.700Z,33.98
2022-08-16T15:59:48.768Z,34.39
2022-08-16T16:02:27.395Z,34.98
2022-08-16T16:04:56.630Z,35.53
2022-08-16T16:07:23.345Z,35.80
2022-08-16T16:09:49.817Z,35.87
2022-08-16T16:12:50.131Z,35.87
2022-08-16T16:15:07.262Z,35.79
2022-08-16T16:17:34.241Z,35.67
2022-08-16T16:20:03.781Z,35.52
2022-08-16T16:22:30.272Z,35.37
2022-08-16T16:24:56.945Z,35.29
2022-08-16T16:27:23.969Z,35.41
2022-08-16T16:30:01.514Z,35.63
2022-08-16T16:32:34.464Z,35.86
2022-08-16T16:35:02.418Z,35.86
2022-08-16T16:37:31.014Z,35.87
2022-08-16T16:39:58.277Z,35.76
2022-08-16T16:42:30.328Z,35.69
2022-08-16T16:45:01.608Z,35.61
2022-08-16T16:47:40.582Z,35.45
2022-08-16T16:50:09.467Z,35.27
2022-08-16T16:52:44.266Z,35.04
2022-08-16T16:55:13.501Z,34.84
2022-08-16T16:58:03.205Z,34.60
2022-08-16T17:00:37.881Z,34.31
2022-08-16T17:03:06.247Z,34.07
2022-08-16T17:05:44.179Z,33.80
2022-08-16T17:08:23.976Z,33.53
2022-08-16T17:10:51.804Z,33.34
2022-08-16T17:13:20.346Z,33.11
2022-08-16T17:15:46.847Z,32.92
2022-08-16T17:19:16.501Z,32.76
2022-08-16T17:21:06.524Z,32.59
2022-08-16T17:23:58.870Z,32.45
2022-08-16T17:26:19.741Z,32.31
2022-08-16T17:29:00.237Z,32.21
2022-08-16T17:31:40.880Z,32.09
2022-08-16T17:34:30.407Z,31.97
2022-08-16T17:36:59.633Z,31.83
2022-08-16T17:39:29.518Z,31.71
2022-08-16T17:41:57.117Z,31.57
2022-08-16T17:44:23.746Z,31.42
2022-08-16T17:46:52.087Z,31.29
2022-08-16T17:49:19.552Z,31.12
2022-08-16T17:51:46.099Z,30.99
2022-08-16T17:54:18.783Z,30.88
2022-08-16T17:57:01.274Z,30.70
2022-08-16T17:59:28.849Z,30.56
2022-08-16T18:01:56.140Z,30.41
2022-08-16T18:04:45.219Z,30.27
2022-08-16T18:07:10.100Z,30.09
2022-08-16T18:09:36.969Z,29.97
2022-08-16T18:12:44.876Z,29.81
2022-08-16T18:15:09.370Z,29.65
2022-08-16T18:17:35.949Z,29.51
2022-08-16T18:20:03.382Z,29.36
2022-08-16T18:22:33.677Z,29.22
2022-08-16T18:25:00.518Z,29.11
2022-08-16T18:27:28.523Z,28.94
2022-08-16T18:29:55.084Z,28.82
2022-08-16T18:32:24.840Z,28.68
2022-08-16T18:34:54.519Z,28.57
2022-08-16T18:37:23.005Z,28.44
2022-08-16T18:39:49.460Z,28.30
2022-08-16T18:42:15.972Z,28.18
2022-08-16T18:44:43.975Z,28.05
2022-08-16T18:47:10.865Z,27.94
2022-08-16T18:49:37.320Z,27.84
2022-08-16T18:52:04.642Z,27.75
2022-08-16T18:54:32.242Z,27.65
2022-08-16T18:56:58.842Z,27.53
2022-08-16T18:59:30.801Z,27.44
2022-08-16T19:02:00.523Z,27.34
2022-08-16T19:04:56.562Z,27.22
2022-08-16T19:07:21.039Z,27.10
2022-08-16T19:09:47.721Z,26.97
2022-08-16T19:12:16.045Z,26.91
2022-08-16T19:14:44.140Z,26.80
2022-08-16T19:17:11.304Z,26.69
2022-08-16T19:19:37.861Z,26.60
2022-08-16T19:22:05.894Z,26.48
2022-08-16T19:24:32.461Z,26.40
2022-08-16T19:26:59.002Z,26.31
2022-08-16T19:29:28.560Z,26.21
2022-08-16T19:31:55.009Z,26.11
2022-08-16T19:34:21.519Z,26.01
2022-08-16T19:36:48.018Z,25.92
2022-08-16T19:39:15.517Z,25.82
2022-08-16T19:41:45.277Z,25.76
2022-08-16T19:44:12.015Z,25.67
2022-08-16T19:46:41.612Z,25.62
2022-08-16T19:49:08.077Z,25.56
2022-08-16T19:51:34.641Z,25.52
2022-08-16T19:54:01.044Z,25.47
2022-08-16T19:56:27.476Z,25.43
2022-08-16T20:01:42.894Z,25.27
2022-08-16T20:04:13.618Z,25.19
2022-08-16T20:06:41.587Z,25.13
2022-08-16T20:09:08.082Z,25.03
2022-08-16T20:11:37.132Z,24.94
2022-08-16T20:14:04.342Z,24.87
2022-08-16T20:16:30.900Z,24.79
2022-08-16T20:18:57.674Z,24.73
2022-08-16T20:21:24.391Z,24.64
2022-08-16T20:23:51.068Z,24.58
2022-08-16T20:26:18.743Z,24.46
2022-08-16T20:28:53.888Z,24.41
2022-08-16T20:31:23.058Z,24.32
2022-08-16T20:33:50.765Z,24.25
2022-08-16T20:36:17.268Z,24.18
2022-08-16T20:38:47.023Z,24.13
2022-08-16T20:41:14.424Z,24.06
2022-08-16T20:43:40.843Z,24.01
2022-08-16T20:46:07.690Z,23.95
2022-08-16T20:48:34.137Z,23.93
2022-08-16T20:51:00.582Z,23.90
2022-08-16T20:53:27.020Z,23.89
2022-08-16T20:55:53.515Z,23.85
2022-08-16T20:58:19.924Z,23.82
2022-08-16T21:00:47.232Z,23.79
2022-08-16T21:03:14.077Z,23.73
2022-08-16T21:05:41.032Z,23.68
2022-08-16T21:08:26.774Z,23.65
2022-08-16T21:10:56.410Z,23.59
2022-08-16T21:13:25.339Z,23.54
2022-08-16T21:15:52.084Z,23.51
2022-08-16T21:18:18.476Z,23.47
2022-08-16T21:20:44.908Z,23.42
2022-08-16T21:23:11.385Z,23.42
2022-08-16T21:25:44.831Z,23.38
2022-08-16T21:28:39.206Z,23.32
2022-08-16T21:31:09.928Z,23.19
2022-08-16T21:33:36.341Z,23.18
2022-08-16T21:36:03.030Z,23.17
2022-08-16T21:38:30.772Z,23.14
2022-08-16T21:40:59.193Z,23.13
2022-08-16T21:43:27.564Z,23.10
2022-08-16T21:45:55.414Z,23.09
2022-08-16T21:48:35.829Z,23.07
2022-08-16T21:51:08.918Z,23.08
2022-08-16T21:53:36.054Z,23.06
2022-08-16T21:56:04.585Z,23.05
2022-08-16T21:58:31.611Z,23.00
2022-08-16T22:00:59.028Z,22.96
2022-08-16T22:03:25.593Z,22.90
2022-08-16T22:06:12.027Z,22.84
2022-08-16T22:08:49.751Z,22.73
2022-08-16T22:11:22.292Z,22.67
2022-08-16T22:13:58.300Z,22.58
2022-08-16T22:16:31.804Z,22.50
2022-08-16T22:18:58.989Z,22.40
2022-08-16T22:21:26.330Z,22.33
2022-08-16T22:23:57.669Z,22.25
2022-08-16T22:26:31.828Z,22.20
2022-08-16T22:29:07.609Z,22.14
2022-08-16T22:31:35.615Z,22.09
2022-08-16T22:34:03.102Z,22.05
2022-08-16T22:36:31.576Z,21.99
2022-08-16T22:39:00.083Z,21.96
2022-08-16T22:41:28.452Z,21.89
2022-08-16T22:43:55.836Z,21.81
2022-08-16T22:46:22.683Z,21.74
2022-08-16T22:48:52.290Z,21.68
2022-08-16T22:51:20.326Z,21.62
2022-08-16T22:53:47.410Z,21.54
2022-08-16T22:56:15.573Z,21.47
2022-08-16T22:58:42.395Z,21.43
2022-08-16T23:01:09.864Z,21.40
2022-08-16T23:03:37.786Z,21.37
2022-08-16T23:06:05.960Z,21.35
2022-08-16T23:08:39.362Z,21.31
2022-08-16T23:11:12.455Z,21.27
2022-08-16T23:13:49.886Z,21.23
2022-08-16T23:16:33.717Z,21.19
2022-08-16T23:19:09.635Z,21.18
2022-08-16T23:21:38.565Z,21.17
2022-08-16T23:24:06.743Z,21.15
2022-08-16T23:26:46.830Z,21.16
2022-08-16T23:29:24.309Z,21.12
2022-08-16T23:31:58.848Z,21.09
2022-08-16T23:34:27.277Z,21.07
2022-08-16T23:36:54.194Z,21.07
2022-08-16T23:39:20.747Z,21.09
2022-08-16T23:41:47.286Z,21.11
2022-08-16T23:44:44.197Z,21.15
2022-08-16T23:47:00.632Z,21.18
2022-08-16T23:49:58.371Z,21.20
2022-08-16T23:52:13.986Z,21.22
2022-08-16T23:54:40.429Z,21.25
2022-08-16T23:57:08.227Z,21.31
2022-08-16T23:59:48.634Z,21.35
